createdAt,value
2023-02-02T00:01:41.349Z,3.40
2023-02-02T00:04:01.774Z,3.03
2023-02-02T00:06:04.184Z,2.65
2023-02-02T00:08:06.178Z,2.17
2023-02-02T00:10:08.051Z,2.50
2023-02-02T00:12:09.952Z,2.60
2023-02-02T00:14:14.610Z,2.50
2023-02-02T00:16:28.478Z,2.17
2023-02-02T00:18:32.698Z,2.03
2023-02-02T00:20:37.483Z,2.17
2023-02-02T00:22:39.047Z,2.35
2023-02-02T00:26:45.589Z,4.45
2023-02-02T00:29:06.418Z,3.53
2023-02-02T00:31:10.924Z,2.58
2023-02-02T00:33:12.383Z,3.65
2023-02-02T00:37:27.617Z,2.67
2023-02-02T00:39:44.799Z,2.42
2023-02-02T00:41:57.496Z,3.17
2023-02-02T00:44:26.163Z,2.13
2023-02-02T00:49:06.335Z,2.20
2023-02-02T00:51:20.857Z,2.00
2023-02-02T00:53:47.091Z,2.50
2023-02-02T00:56:00.790Z,3.15
2023-02-02T00:58:11.452Z,3.05
2023-02-02T01:00:27.002Z,2.00
2023-02-02T01:02:43.803Z,2.42
2023-02-02T01:04:54.960Z,3.10
2023-02-02T01:07:07.963Z,1.98
2023-02-02T01:09:14.436Z,3.58
2023-02-02T01:11:19.222Z,2.65
2023-02-02T01:13:26.547Z,1.90
2023-02-02T01:17:35.120Z,2.83
2023-02-02T01:19:39.694Z,3.03
2023-02-02T01:21:41.363Z,2.85
2023-02-02T01:23:42.823Z,1.83
2023-02-02T01:25:45.686Z,2.28
2023-02-02T01:27:47.086Z,2.78
2023-02-02T01:29:48.664Z,1.88
2023-02-02T01:31:55.857Z,2.65
2023-02-02T01:33:57.493Z,2.50
2023-02-02T01:36:19.000Z,1.95
2023-02-02T01:38:21.236Z,2.28
2023-02-02T01:40:28.786Z,2.83
2023-02-02T01:42:30.430Z,2.58
2023-02-02T01:44:53.269Z,2.08
2023-02-02T01:46:54.913Z,2.47
2023-02-02T01:48:59.288Z,3.03
2023-02-02T01:51:20.899Z,2.47
2023-02-02T01:53:29.473Z,1.73
2023-02-02T01:55:32.498Z,4.15
2023-02-02T01:57:39.151Z,3.10
2023-02-02T01:59:44.638Z,1.42
2023-02-02T02:01:47.657Z,1.88
2023-02-02T02:04:07.650Z,1.90
2023-02-02T02:06:11.324Z,1.65
2023-02-02T02:08:18.283Z,1.85
2023-02-02T02:10:19.855Z,3.30
2023-02-02T02:12:24.063Z,2.33
2023-02-02T02:14:47.028Z,1.40
2023-02-02T02:16:54.082Z,1.90
2023-02-02T02:19:10.538Z,3.83
2023-02-02T02:22:04.100Z,1.17
2023-02-02T02:24:30.375Z,1.77
2023-02-02T02:26:55.474Z,1.48
2023-02-02T02:31:08.141Z,1.48
2023-02-02T02:33:29.850Z,1.50
2023-02-02T02:35:31.291Z,2.15
2023-02-02T02:37:46.654Z,1.10
2023-02-02T02:39:48.220Z,2.38
2023-02-02T02:41:52.474Z,1.10
2023-02-02T02:44:01.227Z,1.33
2023-02-02T02:46:06.121Z,1.77
2023-02-02T02:48:10.431Z,1.45
2023-02-02T02:52:13.325Z,2.53
2023-02-02T02:54:17.697Z,2.92
2023-02-02T02:56:23.109Z,1.65
2023-02-02T02:58:33.688Z,1.40
2023-02-02T03:00:42.502Z,2.13
2023-02-02T03:03:29.244Z,1.88
2023-02-02T03:05:49.379Z,1.40
2023-02-02T03:07:53.996Z,1.83
2023-02-02T03:09:59.264Z,1.13
2023-02-02T03:12:00.868Z,1.77
2023-02-02T03:14:09.723Z,1.42
2023-02-02T03:16:11.469Z,2.63
2023-02-02T03:18:17.217Z,1.75
2023-02-02T03:20:18.966Z,1.65
2023-02-02T03:22:23.324Z,1.98
2023-02-02T03:24:27.862Z,1.98
2023-02-02T03:26:29.540Z,1.30
2023-02-02T03:28:50.336Z,1.40
2023-02-02T03:30:55.348Z,1.20
2023-02-02T03:33:03.047Z,1.52
2023-02-02T03:35:10.424Z,1.45
2023-02-02T03:37:14.556Z,1.20
2023-02-02T03:39:21.771Z,1.13
2023-02-02T03:41:30.357Z,2.45
2023-02-02T03:43:49.307Z,2.22
2023-02-02T03:46:08.657Z,1.42
2023-02-02T03:48:20.933Z,1.73
2023-02-02T03:50:31.555Z,2.55
2023-02-02T03:52:46.832Z,1.58
2023-02-02T03:54:59.355Z,2.88
2023-02-02T03:57:21.146Z,1.33
2023-02-02T03:59:33.115Z,2.30
2023-02-02T04:01:44.981Z,2.05
2023-02-02T04:03:55.696Z,1.58
2023-02-02T04:06:07.989Z,1.80
2023-02-02T04:08:24.257Z,1.15
2023-02-02T04:10:36.194Z,2.10
2023-02-02T04:12:49.084Z,1.20
2023-02-02T04:14:55.291Z,1.58
2023-02-02T04:16:56.882Z,1.23
2023-02-02T04:21:02.266Z,1.25
2023-02-02T04:23:06.661Z,1.25
2023-02-02T04:25:11.150Z,1.65
2023-02-02T04:27:12.642Z,1.20
2023-02-02T04:29:17.120Z,1.35
2023-02-02T04:31:18.598Z,1.88
2023-02-02T04:33:24.358Z,1.95
2023-02-02T04:35:28.606Z,1.38
2023-02-02T04:37:32.674Z,1.75
2023-02-02T04:39:40.258Z,1.40
2023-02-02T04:41:44.679Z,1.40
2023-02-02T04:43:46.277Z,1.58
2023-02-02T04:45:47.779Z,1.15
2023-02-02T04:47:52.303Z,1.42
2023-02-02T04:49:53.779Z,1.08
2023-02-02T04:51:55.349Z,1.05
2023-02-02T04:53:59.975Z,2.70
2023-02-02T04:56:08.871Z,2.00
2023-02-02T04:58:13.490Z,1.50
2023-02-02T05:00:15.365Z,1.15
2023-02-02T05:02:16.990Z,1.50
2023-02-02T05:04:18.717Z,1.27
2023-02-02T05:06:38.898Z,1.42
2023-02-02T05:08:40.402Z,2.00
2023-02-02T05:10:45.002Z,1.05
2023-02-02T05:12:49.191Z,1.27
2023-02-02T05:14:53.561Z,1.88
2023-02-02T05:16:58.000Z,1.73
2023-02-02T05:18:59.650Z,1.92
2023-02-02T05:21:01.918Z,1.27
2023-02-02T05:23:06.184Z,1.20
2023-02-02T05:25:08.140Z,2.28
2023-02-02T05:27:09.621Z,1.90
2023-02-02T05:29:11.114Z,1.45
2023-02-02T05:33:19.871Z,1.13
2023-02-02T05:35:24.414Z,1.20
2023-02-02T05:37:44.817Z,0.93
2023-02-02T05:41:52.267Z,1.25
2023-02-02T05:43:58.934Z,1.45
2023-02-02T05:46:00.578Z,1.10
2023-02-02T05:48:02.181Z,2.17
2023-02-02T05:50:03.742Z,1.42
2023-02-02T05:52:09.306Z,1.75
2023-02-02T05:54:20.427Z,3.55
2023-02-02T05:56:22.249Z,1.40
2023-02-02T05:58:23.834Z,1.65
2023-02-02T06:02:31.985Z,1.30
2023-02-02T06:04:36.240Z,3.05
2023-02-02T06:06:40.608Z,1.23
2023-02-02T06:08:42.072Z,1.67
2023-02-02T06:10:43.640Z,1.60
2023-02-02T06:12:45.165Z,1.35
2023-02-02T06:15:05.858Z,1.35
2023-02-02T06:17:07.465Z,1.45
2023-02-02T06:19:27.599Z,1.25
2023-02-02T06:21:47.590Z,2.00
2023-02-02T06:25:53.075Z,1.15
2023-02-02T06:27:58.444Z,1.00
2023-02-02T06:29:59.867Z,1.27
2023-02-02T06:32:07.151Z,1.40
2023-02-02T06:34:27.209Z,1.13
2023-02-02T06:36:31.364Z,2.42
2023-02-02T06:38:35.643Z,2.55
2023-02-02T06:42:45.051Z,2.25
2023-02-02T06:44:57.692Z,2.10
2023-02-02T06:47:13.400Z,1.42
2023-02-02T06:49:28.284Z,3.00
2023-02-02T06:51:43.285Z,1.40
2023-02-02T06:53:59.818Z,1.83
2023-02-02T06:56:14.007Z,1.52
2023-02-02T06:58:27.668Z,1.85
2023-02-02T07:00:44.549Z,1.55
2023-02-02T07:03:04.884Z,1.23
2023-02-02T07:05:27.966Z,3.40
2023-02-02T07:07:47.592Z,2.67
2023-02-02T07:10:01.973Z,1.45
2023-02-02T07:14:31.407Z,1.58
2023-02-02T07:16:47.828Z,2.97
2023-02-02T07:18:51.614Z,2.55
2023-02-02T07:20:58.583Z,1.50
2023-02-02T07:23:00.216Z,2.17
2023-02-02T07:25:01.673Z,1.70
2023-02-02T07:27:03.147Z,2.08
2023-02-02T07:29:04.967Z,1.27
2023-02-02T07:31:14.349Z,1.63
2023-02-02T07:33:15.947Z,1.60
2023-02-02T07:35:20.488Z,2.35
2023-02-02T07:37:28.053Z,1.13
2023-02-02T07:39:30.039Z,2.25
2023-02-02T07:41:31.934Z,1.35
2023-02-02T07:43:37.078Z,1.13
2023-02-02T07:45:39.690Z,2.15
2023-02-02T07:47:43.953Z,1.85
2023-02-02T07:51:49.736Z,3.05
2023-02-02T07:54:09.826Z,1.38
2023-02-02T07:56:11.569Z,1.35
2023-02-02T07:58:12.975Z,1.90
2023-02-02T08:00:14.659Z,1.52
2023-02-02T08:02:16.535Z,1.50
2023-02-02T08:04:21.019Z,1.70
2023-02-02T08:06:28.366Z,1.50
2023-02-02T08:08:32.663Z,1.58
2023-02-02T08:10:34.126Z,2.15
2023-02-02T08:14:39.863Z,1.67
2023-02-02T08:16:41.347Z,3.20
2023-02-02T08:18:43.973Z,1.55
2023-02-02T08:20:49.358Z,1.63
2023-02-02T08:22:50.930Z,1.25
2023-02-02T08:24:52.478Z,1.45
2023-02-02T08:26:57.095Z,1.17
2023-02-02T08:29:03.175Z,1.60
2023-02-02T08:31:17.779Z,1.48
2023-02-02T08:33:19.509Z,1.20
2023-02-02T08:35:43.259Z,2.92
2023-02-02T08:37:49.287Z,0.90
2023-02-02T08:40:09.890Z,1.15
2023-02-02T08:42:11.416Z,2.20
2023-02-02T08:44:14.022Z,1.23
2023-02-02T08:46:20.072Z,1.63
2023-02-02T08:48:22.053Z,0.80
2023-02-02T08:50:29.222Z,2.40
2023-02-02T08:52:30.898Z,1.23
2023-02-02T08:54:38.077Z,0.98
2023-02-02T08:56:39.937Z,1.15
2023-02-02T08:58:44.552Z,1.20
2023-02-02T09:00:45.993Z,1.40
2023-02-02T09:02:50.645Z,2.17
2023-02-02T09:04:52.126Z,1.67
2023-02-02T09:06:56.705Z,1.63
2023-02-02T09:08:58.548Z,1.75
2023-02-02T09:11:10.204Z,0.90
2023-02-02T09:13:11.700Z,1.52
2023-02-02T09:15:13.647Z,0.82
2023-02-02T09:17:15.091Z,0.80
2023-02-02T09:19:22.629Z,0.80
2023-02-02T09:21:24.785Z,0.98
2023-02-02T09:23:30.514Z,0.77
2023-02-02T09:25:32.443Z,1.10
2023-02-02T09:27:37.675Z,1.25
2023-02-02T09:29:57.868Z,1.10
2023-02-02T09:32:05.775Z,1.05
2023-02-02T09:34:11.497Z,1.08
2023-02-02T09:36:20.431Z,0.60
2023-02-02T09:38:24.863Z,0.73
2023-02-02T09:42:32.116Z,1.02
2023-02-02T09:44:33.528Z,0.95
2023-02-02T09:46:50.355Z,0.98
2023-02-02T09:49:00.207Z,0.95
2023-02-02T09:51:14.196Z,0.93
2023-02-02T09:53:55.487Z,0.80
2023-02-02T09:56:16.095Z,0.80
2023-02-02T09:58:50.200Z,1.65
2023-02-02T10:00:59.853Z,0.70
2023-02-02T10:03:38.310Z,0.60
2023-02-02T10:06:11.686Z,0.70
2023-02-02T10:08:44.135Z,0.60
2023-02-02T10:11:00.846Z,0.52
2023-02-02T10:13:31.814Z,0.77
2023-02-02T10:15:42.587Z,0.90
2023-02-02T10:17:53.402Z,0.70
2023-02-02T10:20:14.715Z,0.68
2023-02-02T10:22:29.531Z,0.70
2023-02-02T10:24:42.732Z,0.82
2023-02-02T10:26:50.830Z,0.88
2023-02-02T10:28:58.443Z,0.65
2023-02-02T10:31:11.311Z,0.60
2023-02-02T10:33:25.358Z,0.45
2023-02-02T10:36:09.083Z,0.90
2023-02-02T10:38:16.871Z,0.70
2023-02-02T10:40:21.524Z,0.57
2023-02-02T10:42:34.068Z,0.82
2023-02-02T10:44:53.019Z,0.70
2023-02-02T10:46:55.991Z,0.70
2023-02-02T10:49:19.153Z,0.57
2023-02-02T10:51:27.558Z,0.65
2023-02-02T10:53:52.841Z,0.63
2023-02-02T10:56:00.917Z,0.65
2023-02-02T10:58:11.372Z,0.50
2023-02-02T11:00:22.588Z,0.68
2023-02-02T11:02:30.557Z,0.70
2023-02-02T11:04:53.396Z,0.65
2023-02-02T11:07:20.377Z,0.73
2023-02-02T11:09:24.374Z,0.80
2023-02-02T11:11:27.135Z,0.50
2023-02-02T11:13:32.387Z,1.63
2023-02-02T11:15:34.382Z,0.80
2023-02-02T11:17:38.009Z,1.55
2023-02-02T11:19:42.453Z,0.57
2023-02-02T11:21:54.743Z,0.80
2023-02-02T11:24:00.980Z,0.77
2023-02-02T11:26:07.419Z,0.50
2023-02-02T11:28:18.890Z,0.60
2023-02-02T11:30:21.123Z,0.50
2023-02-02T11:32:27.479Z,0.70
2023-02-02T11:34:28.996Z,0.77
2023-02-02T11:36:30.625Z,0.75
2023-02-02T11:38:32.448Z,0.50
2023-02-02T11:40:38.646Z,0.40
2023-02-02T11:42:46.497Z,0.88
2023-02-02T11:44:50.085Z,0.40
2023-02-02T11:46:51.864Z,0.63
2023-02-02T11:49:10.102Z,0.70
2023-02-02T11:51:22.191Z,0.75
2023-02-02T11:53:25.595Z,0.63
2023-02-02T11:55:31.272Z,0.60
2023-02-02T11:57:35.754Z,0.93
2023-02-02T11:59:42.006Z,1.48
2023-02-02T12:01:46.940Z,0.88
2023-02-02T12:03:52.573Z,0.57
2023-02-02T12:05:57.348Z,0.80
2023-02-02T12:07:59.684Z,0.70
2023-02-02T12:10:17.847Z,0.70
2023-02-02T12:12:28.505Z,0.80
2023-02-02T12:14:41.743Z,0.73
2023-02-02T12:16:53.700Z,0.65
2023-02-02T12:19:17.122Z,0.57
2023-02-02T12:21:35.109Z,0.70
2023-02-02T12:24:14.081Z,1.30
2023-02-02T12:26:29.402Z,0.63
2023-02-02T12:28:49.756Z,1.08
2023-02-02T12:31:09.742Z,0.30
2023-02-02T12:33:21.211Z,0.60
2023-02-02T12:35:36.813Z,0.93
2023-02-02T12:37:46.712Z,0.70
2023-02-02T12:39:57.270Z,0.90
2023-02-02T12:42:10.739Z,1.75
2023-02-02T12:44:46.465Z,1.27
2023-02-02T12:47:01.628Z,0.57
2023-02-02T12:49:18.332Z,1.13
2023-02-02T12:51:41.350Z,0.63
2023-02-02T12:53:43.025Z,0.50
2023-02-02T12:55:48.949Z,0.85
2023-02-02T12:58:20.905Z,0.60
2023-02-02T13:00:38.234Z,0.85
2023-02-02T13:03:08.695Z,0.90
2023-02-02T13:05:46.601Z,0.77
2023-02-02T13:08:00.733Z,1.10
2023-02-02T13:10:13.496Z,0.77
2023-02-02T13:12:22.837Z,0.70
2023-02-02T13:14:35.910Z,0.50
2023-02-02T13:16:51.320Z,0.50
2023-02-02T13:19:03.132Z,1.10
2023-02-02T13:21:13.275Z,1.40
2023-02-02T13:23:27.496Z,1.27
2023-02-02T13:25:39.193Z,0.77
2023-02-02T13:27:46.244Z,0.98
2023-02-02T13:30:08.029Z,0.90
2023-02-02T13:32:16.433Z,0.90
2023-02-02T13:34:29.681Z,0.93
2023-02-02T13:36:36.100Z,0.77
2023-02-02T13:38:42.249Z,0.70
2023-02-02T13:40:44.114Z,1.67
2023-02-02T13:43:07.395Z,0.75
2023-02-02T13:45:17.749Z,1.00
2023-02-02T13:47:41.670Z,1.02
2023-02-02T13:49:46.397Z,1.48
2023-02-02T13:51:54.855Z,0.88
2023-02-02T13:54:18.077Z,0.85
2023-02-02T13:56:32.028Z,0.68
2023-02-02T13:58:55.334Z,0.88
2023-02-02T14:01:16.301Z,0.65
2023-02-02T14:03:23.722Z,0.68
2023-02-02T14:05:27.594Z,0.73
2023-02-02T14:07:44.083Z,0.50
2023-02-02T14:09:48.509Z,1.00
2023-02-02T14:12:10.540Z,0.90
2023-02-02T14:14:35.443Z,1.00
2023-02-02T14:18:59.569Z,1.35
2023-02-02T14:21:01.175Z,1.05
2023-02-02T14:23:02.692Z,0.98
2023-02-02T14:25:24.432Z,1.58
2023-02-02T14:27:29.226Z,1.02
2023-02-02T14:29:33.551Z,1.30
2023-02-02T14:31:43.281Z,0.77
2023-02-02T14:33:48.673Z,0.70
2023-02-02T14:35:55.863Z,0.50
2023-02-02T14:38:04.316Z,0.88
2023-02-02T14:40:08.772Z,0.98
2023-02-02T14:42:48.910Z,0.60
2023-02-02T14:45:09.225Z,0.80
2023-02-02T14:47:35.224Z,1.65
2023-02-02T14:49:39.800Z,0.82
2023-02-02T14:51:52.196Z,0.75
2023-02-02T14:53:55.070Z,1.00
2023-02-02T14:56:20.118Z,1.02
2023-02-02T14:58:30.580Z,1.23
2023-02-02T15:00:35.516Z,0.77
2023-02-02T15:02:38.300Z,0.60
2023-02-02T15:05:18.514Z,1.55
2023-02-02T15:07:23.142Z,0.73
2023-02-02T15:09:27.970Z,0.80
2023-02-02T15:11:29.722Z,0.70
2023-02-02T15:13:37.657Z,0.70
2023-02-02T15:15:43.729Z,0.75
2023-02-02T15:17:50.119Z,0.88
2023-02-02T15:20:30.659Z,0.65
2023-02-02T15:22:35.122Z,0.63
2023-02-02T15:24:56.948Z,1.05
2023-02-02T15:27:05.321Z,0.85
2023-02-02T15:29:07.907Z,1.10
2023-02-02T15:31:20.477Z,0.70
2023-02-02T15:33:36.646Z,0.70
2023-02-02T15:35:38.377Z,0.63
2023-02-02T15:37:41.829Z,0.80
2023-02-02T15:40:03.353Z,1.20
2023-02-02T15:42:37.474Z,1.42
2023-02-02T15:44:45.631Z,1.33
2023-02-02T15:46:48.216Z,1.50
2023-02-02T15:49:36.080Z,1.00
2023-02-02T15:51:45.563Z,1.25
2023-02-02T15:53:49.093Z,1.50
2023-02-02T15:56:29.327Z,4.10
2023-02-02T15:58:33.821Z,1.75
2023-02-02T16:00:39.423Z,1.00
2023-02-02T16:02:46.150Z,0.80
2023-02-02T16:04:50.798Z,1.67
2023-02-02T16:07:31.320Z,2.85
2023-02-02T16:09:37.041Z,1.65
2023-02-02T16:11:42.377Z,2.97
2023-02-02T16:14:07.093Z,1.92
2023-02-02T16:16:25.354Z,1.52
2023-02-02T16:18:34.173Z,0.82
2023-02-02T16:20:37.612Z,1.80
2023-02-02T16:22:40.768Z,1.30
2023-02-02T16:25:02.672Z,1.25
2023-02-02T16:27:12.365Z,1.33
2023-02-02T16:29:18.616Z,1.20
2023-02-02T16:31:20.569Z,1.33
2023-02-02T16:33:26.986Z,1.17
2023-02-02T16:35:47.160Z,1.10
2023-02-02T16:37:51.667Z,1.65
2023-02-02T16:39:54.032Z,1.23
2023-02-02T16:42:08.709Z,1.92
2023-02-02T16:44:28.765Z,1.45
2023-02-02T16:46:41.175Z,2.00
2023-02-02T16:49:06.112Z,1.10
2023-02-02T16:51:27.744Z,1.50
2023-02-02T16:53:32.192Z,0.85
2023-02-02T16:55:49.143Z,1.45
2023-02-02T16:58:04.941Z,1.45
2023-02-02T17:00:07.766Z,1.95
2023-02-02T17:02:21.093Z,1.45
2023-02-02T17:04:25.022Z,1.70
2023-02-02T17:06:38.755Z,2.03
2023-02-02T17:08:51.191Z,1.15
2023-02-02T17:11:02.766Z,1.30
2023-02-02T17:13:28.940Z,1.08
2023-02-02T17:15:34.536Z,0.85
2023-02-02T17:17:39.591Z,1.50
2023-02-02T17:19:41.768Z,1.27
2023-02-02T17:21:43.359Z,1.05
2023-02-02T17:23:51.402Z,1.38
2023-02-02T17:25:53.449Z,1.42
2023-02-02T17:28:21.299Z,1.33
2023-02-02T17:30:23.103Z,1.35
2023-02-02T17:32:29.687Z,0.98
2023-02-02T17:34:37.103Z,1.02
2023-02-02T17:36:39.095Z,1.20
2023-02-02T17:38:40.836Z,1.25
2023-02-02T17:40:42.435Z,1.83
2023-02-02T17:44:50.591Z,1.08
2023-02-02T17:46:52.000Z,1.15
2023-02-02T17:48:59.303Z,0.98
2023-02-02T17:51:06.643Z,0.90
2023-02-02T17:53:12.211Z,1.10
2023-02-02T17:55:20.313Z,0.85
2023-02-02T17:57:24.702Z,1.00
2023-02-02T17:59:26.316Z,1.27
2023-02-02T18:01:27.913Z,1.60
2023-02-02T18:03:34.298Z,0.88
2023-02-02T18:05:41.254Z,2.70
2023-02-02T18:07:44.579Z,1.50
2023-02-02T18:09:45.993Z,0.93
2023-02-02T18:12:06.408Z,0.75
2023-02-02T18:14:07.899Z,1.20
2023-02-02T18:16:15.610Z,1.40
2023-02-02T18:18:20.073Z,0.90
2023-02-02T18:20:24.532Z,1.23
2023-02-02T18:22:26.048Z,1.25
2023-02-02T18:24:30.674Z,1.48
2023-02-02T18:26:34.500Z,1.60
2023-02-02T18:28:42.012Z,2.13
2023-02-02T18:30:47.214Z,1.10
2023-02-02T18:32:50.149Z,0.98
2023-02-02T18:34:55.409Z,1.02
2023-02-02T18:37:00.192Z,1.15
2023-02-02T18:39:04.322Z,0.98
2023-02-02T18:41:06.154Z,1.00
2023-02-02T18:43:07.756Z,1.73
2023-02-02T18:45:12.172Z,1.10
2023-02-02T18:47:32.168Z,1.00
2023-02-02T18:49:36.291Z,0.95
2023-02-02T18:51:56.537Z,1.08
2023-02-02T18:54:00.477Z,0.70
2023-02-02T18:56:05.850Z,1.10
2023-02-02T18:58:10.608Z,0.30
2023-02-02T19:00:15.833Z,0.88
2023-02-02T19:02:20.124Z,0.65
2023-02-02T19:04:21.727Z,0.32
2023-02-02T19:06:43.905Z,0.55
2023-02-02T19:08:50.452Z,0.70
2023-02-02T19:11:03.060Z,0.40
2023-02-02T19:13:13.936Z,0.38
2023-02-02T19:15:15.589Z,0.63
2023-02-02T19:17:21.141Z,0.65
2023-02-02T19:19:27.632Z,0.63
2023-02-02T19:21:30.012Z,0.57
2023-02-02T19:23:33.216Z,0.40
2023-02-02T19:25:54.950Z,0.50
2023-02-02T19:27:57.603Z,0.60
2023-02-02T19:30:03.893Z,0.43
2023-02-02T19:32:28.009Z,0.80
2023-02-02T19:34:49.246Z,0.77
2023-02-02T19:36:53.689Z,1.48
2023-02-02T19:39:25.688Z,0.40
2023-02-02T19:41:30.399Z,1.38
2023-02-02T19:43:33.164Z,0.90
2023-02-02T19:45:40.501Z,0.40
2023-02-02T19:47:48.129Z,0.50
2023-02-02T19:49:49.779Z,0.43
2023-02-02T19:51:54.123Z,0.40
2023-02-02T19:54:00.791Z,0.50
2023-02-02T19:56:02.467Z,0.40
2023-02-02T19:58:13.521Z,0.50
2023-02-02T20:00:20.604Z,0.40
2023-02-02T20:02:38.533Z,0.52
2023-02-02T20:04:40.244Z,0.60
2023-02-02T20:06:56.607Z,0.55
2023-02-02T20:09:11.024Z,0.77
2023-02-02T20:11:41.655Z,0.45
2023-02-02T20:13:45.556Z,0.50
2023-02-02T20:15:50.958Z,0.55
2023-02-02T20:17:54.323Z,0.50
2023-02-02T20:19:56.133Z,0.55
2023-02-02T20:21:57.738Z,0.50
2023-02-02T20:24:02.790Z,1.17
2023-02-02T20:26:20.129Z,0.50
2023-02-02T20:28:44.730Z,0.50
2023-02-02T20:30:49.045Z,0.63
2023-02-02T20:32:52.904Z,0.75
2023-02-02T20:35:00.283Z,0.35
2023-02-02T20:37:05.539Z,0.57
2023-02-02T20:39:19.841Z,0.63
2023-02-02T20:41:24.531Z,0.80
2023-02-02T20:43:29.093Z,0.98
2023-02-02T20:45:30.559Z,0.90
2023-02-02T20:47:32.767Z,0.88
2023-02-02T20:49:40.044Z,0.80
2023-02-02T20:51:41.745Z,0.50
2023-02-02T20:53:44.266Z,0.90
2023-02-02T20:55:48.666Z,0.40
2023-02-02T20:58:09.995Z,0.50
2023-02-02T21:00:13.063Z,0.80
2023-02-02T21:02:33.346Z,0.52
2023-02-02T21:04:34.929Z,0.60
2023-02-02T21:06:40.351Z,0.98
2023-02-02T21:08:41.833Z,0.70
2023-02-02T21:10:43.280Z,0.82
2023-02-02T21:12:46.812Z,1.13
2023-02-02T21:14:54.301Z,0.65
2023-02-02T21:17:13.684Z,0.90
2023-02-02T21:19:19.159Z,0.80
2023-02-02T21:21:39.213Z,1.08
2023-02-02T21:23:47.383Z,1.05
2023-02-02T21:25:48.826Z,0.70
2023-02-02T21:28:08.797Z,0.60
2023-02-02T21:30:11.375Z,1.33
2023-02-02T21:32:15.906Z,0.93
2023-02-02T21:34:17.957Z,0.57
2023-02-02T21:36:28.680Z,0.52
2023-02-02T21:38:30.544Z,0.47
2023-02-02T21:40:34.475Z,0.60
2023-02-02T21:42:38.623Z,0.70
2023-02-02T21:44:49.763Z,0.60
2023-02-02T21:46:54.104Z,0.77
2023-02-02T21:48:55.703Z,0.40
2023-02-02T21:51:06.783Z,0.63
2023-02-02T21:53:13.896Z,0.50
2023-02-02T21:55:21.159Z,0.70
2023-02-02T21:57:34.702Z,0.70
2023-02-02T21:59:39.120Z,0.75
2023-02-02T22:01:59.085Z,0.47
2023-02-02T22:04:03.466Z,0.60
2023-02-02T22:06:07.824Z,0.75
2023-02-02T22:08:22.724Z,0.82
2023-02-02T22:10:39.433Z,0.70
2023-02-02T22:12:45.767Z,0.68
2023-02-02T22:14:50.139Z,0.77
2023-02-02T22:16:58.537Z,0.80
2023-02-02T22:19:15.092Z,1.17
2023-02-02T22:21:18.829Z,0.98
2023-02-02T22:23:23.604Z,2.65
2023-02-02T22:25:37.398Z,1.50
2023-02-02T22:27:58.058Z,0.73
2023-02-02T22:30:03.084Z,0.63
2023-02-02T22:32:04.818Z,0.85
2023-02-02T22:34:25.103Z,0.77
2023-02-02T22:36:29.557Z,0.80
2023-02-02T22:38:31.445Z,1.20
2023-02-02T22:40:36.556Z,0.90
2023-02-02T22:42:41.096Z,0.82
2023-02-02T22:44:44.251Z,1.75
2023-02-02T22:47:04.551Z,0.50
2023-02-02T22:49:09.166Z,0.80
2023-02-02T22:51:16.352Z,0.60
2023-02-02T22:53:17.885Z,1.27
2023-02-02T22:55:19.931Z,0.57
2023-02-02T22:57:25.514Z,0.55
2023-02-02T22:59:32.822Z,0.60
2023-02-02T23:01:34.369Z,0.40
2023-02-02T23:03:54.664Z,0.57
2023-02-02T23:05:56.253Z,0.40
2023-02-02T23:07:57.691Z,0.52
2023-02-02T23:10:02.137Z,0.55
2023-02-02T23:12:06.628Z,0.30
2023-02-02T23:14:08.169Z,0.43
2023-02-02T23:16:12.745Z,0.45
2023-02-02T23:18:17.270Z,0.55
2023-02-02T23:20:18.908Z,0.57
2023-02-02T23:22:20.502Z,0.73
2023-02-02T23:24:24.958Z,0.63
2023-02-02T23:26:26.441Z,0.30
2023-02-02T23:28:33.681Z,0.45
2023-02-02T23:30:35.209Z,0.35
2023-02-02T23:32:37.025Z,0.45
2023-02-02T23:34:38.547Z,0.50
2023-02-02T23:36:46.213Z,0.70
2023-02-02T23:38:47.954Z,0.40
2023-02-02T23:40:52.513Z,1.05
2023-02-02T23:43:00.032Z,0.70
2023-02-02T23:45:04.960Z,0.45
2023-02-02T23:47:06.525Z,0.60
2023-02-02T23:49:11.263Z,0.52
2023-02-02T23:51:18.621Z,1.00
2023-02-02T23:55:24.406Z,0.65
2023-02-02T23:59:32.596Z,0.45
